Time;durP1;ratioP1;P1;durP2;ratioP2;P2;SDS_P1;SDS_P2;PMS_P1;PMS_P2;Temp;Humidity;BMP_temperature;BMP_pressure;BME280_temperature;BME280_humidity;BME280_pressure;Samples;Min_cycle;Max_cycle;Signal;HPM_P1;HPM_P2
2022/11/08 00:01:39;;;;;;;28.47;18.87;;;;;;;6.70;97.12;99098.66;2212138;81;21001;-83
2022/11/08 00:04:19;;;;;;;28.07;18.63;;;;;;;6.66;97.23;99104.59;2212193;81;21028;-83
2022/11/08 00:13:58;;;;;;;27.13;18.77;;;;;;;6.63;97.39;99105.80;2212235;81;20965;-84
2022/11/08 00:16:57;;;;;;;30.23;18.67;;;;;;;6.66;97.36;99109.78;2212613;81;20972;-83
2022/11/08 00:19:58;;;;;;;33.97;18.57;;;;;;;6.68;97.32;99109.41;2212390;81;20932;-83
2022/11/08 00:22:58;;;;;;;35.20;18.67;;;;;;;6.71;97.19;99111.69;2211851;81;21332;-83
2022/11/08 00:25:59;;;;;;;25.07;17.53;;;;;;;6.70;97.16;99109.05;2212111;81;20992;-84
2022/11/08 00:28:59;;;;;;;26.83;16.83;;;;;;;6.74;96.94;99105.71;2212416;81;20913;-84
2022/11/08 00:31:59;;;;;;;40.43;17.17;;;;;;;6.70;96.52;99111.64;2212201;81;20952;-84
2022/11/08 00:35:00;;;;;;;33.23;19.20;;;;;;;6.67;96.38;99108.95;2212092;81;20945;-83
2022/11/08 00:38:00;;;;;;;33.47;18.53;;;;;;;6.71;96.77;99114.70;2212511;81;20956;-84
2022/11/08 00:41:01;;;;;;;26.57;16.73;;;;;;;6.76;96.89;99108.36;2212819;81;21312;-84
2022/11/08 00:44:01;;;;;;;28.77;18.93;;;;;;;6.78;96.56;99100.20;2212334;81;20937;-84
2022/11/08 00:47:01;;;;;;;28.70;17.87;;;;;;;6.77;96.39;99103.22;2212366;81;21000;-84
2022/11/08 00:50:02;;;;;;;30.87;18.53;;;;;;;6.72;95.94;99106.08;2212771;81;21260;-84
2022/11/08 00:53:02;;;;;;;38.40;17.00;;;;;;;6.65;95.77;99098.94;2212360;81;20968;-85
2022/11/08 00:56:03;;;;;;;27.77;17.30;;;;;;;6.53;94.99;99107.63;2212394;81;21024;-84
2022/11/08 00:59:03;;;;;;;24.73;17.37;;;;;;;6.40;95.02;99107.66;2212559;81;21290;-84
2022/11/08 01:02:03;;;;;;;77.00;20.07;;;;;;;6.22;94.75;99107.94;2212517;81;20968;-84
2022/11/08 01:05:04;;;;;;;28.00;16.43;;;;;;;6.19;95.28;99111.72;2212345;81;20936;-84
2022/11/08 01:08:04;;;;;;;21.57;15.73;;;;;;;6.10;94.66;99106.23;2211792;81;21387;-83
2022/11/08 01:11:05;;;;;;;25.50;15.97;;;;;;;5.93;94.44;99113.41;2212194;81;20940;-83
2022/11/08 01:14:05;;;;;;;24.07;15.60;;;;;;;5.80;94.39;99111.19;2212211;81;21027;-83
2022/11/08 01:17:05;;;;;;;254.53;28.60;;;;;;;5.71;94.49;99103.98;2211869;81;20971;-81
2022/11/08 01:20:06;;;;;;;25.97;16.10;;;;;;;5.58;94.91;99098.31;2211555;81;21004;-81
2022/11/08 01:23:06;;;;;;;61.33;17.47;;;;;;;5.52;95.65;99093.80;2212270;81;20980;-84
2022/11/08 01:26:07;;;;;;;25.27;16.60;;;;;;;5.46;95.49;99096.17;2211987;81;21019;-83
2022/11/08 01:29:07;;;;;;;44.80;16.40;;;;;;;5.40;95.67;99099.41;2212053;81;21367;-80
2022/11/08 01:32:07;;;;;;;19.80;14.30;;;;;;;5.35;95.54;99100.95;2212102;81;20929;-84
2022/11/08 01:35:08;;;;;;;21.97;15.53;;;;;;;5.28;95.48;99099.38;2211878;81;20977;-83
2022/11/08 01:38:08;;;;;;;37.07;14.50;;;;;;;5.21;95.41;99101.28;2211855;81;21340;-83
2022/11/08 01:41:09;;;;;;;40.67;14.93;;;;;;;5.11;95.41;99102.61;2211899;81;20933;-84
2022/11/08 01:44:09;;;;;;;35.80;15.37;;;;;;;5.05;95.48;99101.97;2211656;81;20971;-80
2022/11/08 01:47:09;;;;;;;30.53;15.27;;;;;;;5.03;95.48;99096.27;2211789;81;21427;-84
2022/11/08 01:50:10;;;;;;;24.00;14.63;;;;;;;5.02;95.71;99103.15;2211729;81;20992;-80
2022/11/08 01:53:10;;;;;;;31.27;16.50;;;;;;;4.97;95.44;99099.92;2211727;81;21032;-83
2022/11/08 01:56:11;;;;;;;29.90;18.90;;;;;;;4.92;95.95;99097.16;2214615;80;21442;-82
2022/11/08 01:59:11;;;;;;;34.40;17.27;;;;;;;4.91;96.40;99103.16;2222339;80;20964;-82
2022/11/08 02:02:11;;;;;;;25.90;15.97;;;;;;;4.86;96.12;99104.69;2222471;80;20924;-83
2022/11/08 02:05:23;;;;;;;21.23;14.50;;;;;;;4.79;95.90;99109.16;2222556;80;20968;-84
2022/11/08 02:08:12;;;;;;;24.43;15.90;;;;;;;4.69;95.76;99105.33;2222413;80;20928;-84
2022/11/08 02:11:13;;;;;;;56.00;17.43;;;;;;;4.64;95.94;99104.27;2223018;80;20965;-82
2022/11/08 02:14:15;;;;;;;26.37;15.53;;;;;;;4.62;96.38;99103.33;2223324;80;20955;-84
2022/11/08 02:17:15;;;;;;;21.67;14.10;;;;;;;4.57;96.31;99094.50;2223595;80;21052;-83
2022/11/08 02:20:17;;;;;;;51.77;16.77;;;;;;;4.54;96.05;99098.27;2223722;80;20956;-82
2022/11/08 02:23:18;;;;;;;24.70;14.90;;;;;;;4.48;96.20;99092.44;2224167;80;20917;-84
2022/11/08 02:26:18;;;;;;;22.03;13.47;;;;;;;4.51;96.58;99092.09;2223421;80;21031;-83
2022/11/08 02:29:18;;;;;;;55.57;14.20;;;;;;;4.51;95.72;99088.21;2223702;80;20921;-83
2022/11/08 02:32:19;;;;;;;15.97;11.30;;;;;;;4.40;95.29;99088.67;2223356;80;20932;-83
2022/11/08 02:35:19;;;;;;;18.53;11.07;;;;;;;4.31;95.28;99086.98;2222864;80;20909;-81
2022/11/08 02:38:20;;;;;;;17.27;11.50;;;;;;;4.20;94.98;99086.95;2223056;80;20932;-84
2022/11/08 02:41:20;;;;;;;51.00;13.23;;;;;;;4.10;95.12;99089.98;2223912;80;20916;-82
2022/11/08 02:44:20;;;;;;;21.43;10.90;;;;;;;4.05;95.33;99089.80;2224490;80;20968;-84
2022/11/08 02:47:22;;;;;;;14.93;10.90;;;;;;;4.00;95.41;99085.26;2223513;80;20912;-83
2022/11/08 02:50:21;;;;;;;15.10;11.03;;;;;;;3.93;95.30;99081.54;2223609;80;20924;-83
2022/11/08 02:53:22;;;;;;;17.43;11.03;;;;;;;3.83;95.53;99088.02;2223726;80;20956;-82
2022/11/08 02:56:22;;;;;;;20.67;11.63;;;;;;;3.83;95.53;99088.02;2220200;80;21015;-84
2022/11/08 02:59:22;;;;;;;16.70;11.07;;;;;;;3.79;94.99;99086.13;2213302;81;21322;-82
2022/11/08 03:02:23;;;;;;;15.77;11.20;;;;;;;3.71;94.65;99088.80;2211985;81;20949;-82
2022/11/08 03:05:23;;;;;;;17.17;11.17;;;;;;;3.68;94.85;99095.12;2212697;81;20925;-84
2022/11/08 03:08:24;;;;;;;18.50;12.03;;;;;;;3.63;94.91;99095.73;2213839;81;21336;-85
2022/11/08 03:11:24;;;;;;;20.07;12.60;;;;;;;3.57;94.78;99095.06;2213025;81;20916;-84
2022/11/08 03:14:25;;;;;;;21.87;13.23;;;;;;;3.55;95.13;99093.23;2212986;81;20951;-85
2022/11/08 03:17:25;;;;;;;20.30;12.97;;;;;;;3.55;95.27;99097.98;2212548;81;20965;-84
2022/11/08 03:20:25;;;;;;;21.20;13.30;;;;;;;3.56;95.27;99098.47;2212691;81;20967;-83
2022/11/08 03:23:26;;;;;;;20.10;12.67;;;;;;;3.51;94.98;99095.69;2212197;81;20953;-84
2022/11/08 03:26:26;;;;;;;18.90;12.50;;;;;;;3.44;94.67;99097.48;2212214;80;20984;-84
2022/11/08 03:29:27;;;;;;;27.00;13.30;;;;;;;3.39;94.54;99096.81;2212447;81;20932;-81
2022/11/08 03:32:27;;;;;;;20.77;12.80;;;;;;;3.37;94.70;99099.73;2212784;81;20987;-84
2022/11/08 03:35:27;;;;;;;20.03;13.90;;;;;;;3.32;94.60;99098.24;2212166;81;20917;-82
2022/11/08 03:38:28;;;;;;;20.23;13.97;;;;;;;3.31;94.62;99098.17;2213198;81;20928;-81
2022/11/08 03:41:28;;;;;;;24.17;12.90;;;;;;;3.31;94.62;99099.06;2212933;81;20897;-82
2022/11/08 03:44:29;;;;;;;40.53;15.23;;;;;;;3.30;94.34;99096.00;2212400;81;20952;-83
2022/11/08 03:47:29;;;;;;;88.37;17.17;;;;;;;3.27;94.32;99093.29;2212554;81;20920;-84
2022/11/08 03:50:29;;;;;;;28.57;13.77;;;;;;;3.27;94.34;99097.56;2212918;81;20928;-84
2022/11/08 03:53:30;;;;;;;43.47;16.10;;;;;;;3.26;94.46;99095.80;2213068;81;21015;-83
2022/11/08 03:56:30;;;;;;;25.73;13.83;;;;;;;3.24;94.44;99100.01;2215247;80;21473;-85
2022/11/08 03:59:31;;;;;;;22.83;14.03;;;;;;;3.21;94.22;99096.88;2223131;80;21010;-83
2022/11/08 04:02:31;;;;;;;23.47;14.00;;;;;;;3.19;94.14;99103.67;2222741;80;20948;-84
2022/11/08 04:05:32;;;;;;;42.50;15.60;;;;;;;3.16;94.23;99099.66;2222815;80;20940;-82
2022/11/08 04:08:32;;;;;;;30.20;14.83;;;;;;;3.15;94.65;99101.36;2222600;80;20975;-83
2022/11/08 04:21:26;;;;;;;19.07;13.20;;;;;;;3.05;93.87;99096.61;2221362;80;20959;-84
2022/11/08 04:24:26;;;;;;;22.00;13.40;;;;;;;2.93;93.45;99095.17;2221170;80;20959;-83
2022/11/08 04:27:27;;;;;;;22.30;14.17;;;;;;;2.93;93.45;99095.17;2221719;80;21027;-84
2022/11/08 04:30:27;;;;;;;27.50;14.67;;;;;;;2.87;93.70;99092.78;2222474;80;20967;-84
2022/11/08 04:33:28;;;;;;;29.07;14.93;;;;;;;2.83;93.39;99096.44;2222755;80;21387;-82
2022/11/08 04:36:28;;;;;;;31.57;15.53;;;;;;;2.79;93.67;99097.11;2222227;80;21394;-82
2022/11/08 04:39:28;;;;;;;92.77;19.40;;;;;;;2.78;94.00;99094.05;2221263;80;21002;-83
2022/11/08 04:42:29;;;;;;;71.10;16.30;;;;;;;2.73;93.72;99088.69;2221706;80;20908;-86
2022/11/08 04:45:29;;;;;;;115.93;19.30;;;;;;;2.73;96.14;99085.23;2222262;80;20976;-80
2022/11/08 04:48:30;;;;;;;49.57;15.73;;;;;;;3.68;95.59;99085.20;2222505;80;20913;-84
2022/11/08 04:51:30;;;;;;;31.60;14.10;;;;;;;3.50;92.82;99081.42;2221945;80;21008;-83
2022/11/08 04:54:30;;;;;;;23.13;15.27;;;;;;;3.26;91.86;99073.87;2222206;80;21261;-85
2022/11/08 04:57:31;;;;;;;27.57;15.40;;;;;;;3.05;92.13;99081.13;2216706;80;21078;-85
2022/11/08 05:00:31;;;;;;;23.50;14.27;;;;;;;2.97;92.45;99081.19;2211670;81;21331;-84
2022/11/08 05:03:32;;;;;;;22.23;14.37;;;;;;;2.90;92.38;99084.71;2212113;81;20976;-84
2022/11/08 05:06:34;;;;;;;25.73;15.40;;;;;;;2.80;92.50;99082.12;2187928;81;21811;-84
2022/11/08 05:09:34;;;;;;;21.73;15.13;;;;;;;2.72;92.73;99075.73;2211051;81;21003;-84
2022/11/08 05:12:35;;;;;;;24.10;15.53;;;;;;;2.65;92.88;99082.30;2211264;81;20956;-82
2022/11/08 05:15:35;;;;;;;24.00;15.13;;;;;;;2.59;92.91;99087.53;2210378;81;20991;-85
2022/11/08 05:18:36;;;;;;;40.27;15.80;;;;;;;2.53;93.17;99087.72;2210605;81;20964;-84
2022/11/08 05:24:46;;;;;;;97.73;19.63;;;;;;;2.45;93.08;99085.19;2209647;80;21034;-84
2022/11/08 05:27:46;;;;;;;22.70;13.90;;;;;;;2.42;93.26;99085.05;2209188;81;21371;-83
2022/11/08 05:30:46;;;;;;;25.57;13.87;;;;;;;2.42;93.54;99082.88;2208956;81;20992;-83
2022/11/08 05:33:47;;;;;;;28.83;14.73;;;;;;;2.38;93.52;99083.14;2209338;81;21011;-81
2022/11/08 05:36:47;;;;;;;25.77;14.23;;;;;;;2.39;93.75;99093.92;2210165;81;20980;-81
2022/11/08 05:39:48;;;;;;;121.80;20.23;;;;;;;2.37;93.51;99086.52;2208600;81;21172;-83
2022/11/08 05:42:48;;;;;;;28.23;15.93;;;;;;;2.34;93.81;99091.53;2208070;81;21031;-83
2022/11/08 05:45:51;;;;;;;21.87;15.53;;;;;;;2.36;94.13;99091.60;2208179;81;21011;-82
2022/11/08 05:48:52;;;;;;;22.70;15.23;;;;;;;2.36;94.22;99095.47;2207830;81;20957;-80
2022/11/08 05:51:52;;;;;;;30.10;18.00;;;;;;;2.37;95.25;99107.13;2205261;81;20993;-82
2022/11/08 05:54:53;;;;;;;29.13;17.73;;;;;;;2.37;95.25;99107.13;2208146;81;21011;-78
2022/11/08 05:57:53;;;;;;;37.80;20.13;;;;;;;2.40;96.04;99103.41;2212654;80;21046;-81
2022/11/08 06:00:53;;;;;;;39.00;19.33;;;;;;;2.50;97.05;99104.33;2218848;80;21399;-85
2022/11/08 06:03:54;;;;;;;31.17;19.80;;;;;;;2.60;97.01;99109.92;2218248;80;21320;-82
2022/11/08 06:06:54;;;;;;;61.23;21.63;;;;;;;2.70;97.51;99117.30;2217924;80;20999;-82
2022/11/08 06:09:55;;;;;;;32.43;20.27;;;;;;;2.77;97.14;99121.94;2217920;80;20995;-82
2022/11/08 06:12:55;;;;;;;31.50;18.93;;;;;;;2.83;97.21;99125.68;2218302;80;20976;-82
2022/11/08 06:15:55;;;;;;;40.87;19.80;;;;;;;2.90;96.89;99133.30;2219343;80;20967;-84
2022/11/08 06:18:56;;;;;;;34.03;19.63;;;;;;;2.95;96.73;99129.23;2219529;80;21019;-84
2022/11/08 06:21:56;;;;;;;33.83;19.60;;;;;;;3.03;96.74;99129.17;2219245;80;21443;-86
2022/11/08 06:24:59;;;;;;;66.97;20.80;;;;;;;3.08;96.54;99126.41;2218532;80;21335;-86
2022/11/08 06:28:00;;;;;;;29.30;17.03;;;;;;;3.14;95.95;99134.83;2219133;80;21065;-85
2022/11/08 06:31:00;;;;;;;257.53;28.60;;;;;;;3.20;95.78;99138.97;2219956;80;20987;-76
2022/11/08 06:34:00;;;;;;;30.50;17.77;;;;;;;3.31;95.50;99140.75;2218055;80;21947;-83
2022/11/08 06:37:01;;;;;;;26.33;15.63;;;;;;;3.41;95.31;99137.77;2219614;80;20960;-84
2022/11/08 06:40:01;;;;;;;42.30;17.37;;;;;;;3.46;95.02;99141.02;2218394;80;20964;-85
2022/11/08 06:43:02;;;;;;;32.80;16.73;;;;;;;3.55;94.91;99140.98;2218133;80;20968;-81
2022/11/08 06:46:02;;;;;;;28.37;16.40;;;;;;;3.66;94.88;99137.17;2218676;80;21030;-85
2022/11/08 06:49:02;;;;;;;59.00;17.67;;;;;;;3.74;94.71;99135.80;2218612;80;20955;-85
2022/11/08 06:52:03;;;;;;;82.50;19.97;;;;;;;3.83;94.70;99142.25;2219256;80;20999;-78
2022/11/08 06:55:05;;;;;;;60.77;17.70;;;;;;;3.92;94.59;99141.76;2218992;80;21003;-85
2022/11/08 06:58:06;;;;;;;129.50;21.23;;;;;;;4.02;94.95;99145.20;2190587;80;21489;-85
2022/11/08 07:01:06;;;;;;;34.23;16.90;;;;;;;4.17;94.59;99147.55;2222426;80;20983;-85
2022/11/08 07:04:09;;;;;;;32.20;17.13;;;;;;;4.31;94.49;99145.13;2221160;80;21011;-84
2022/11/08 07:07:09;;;;;;;26.30;16.77;;;;;;;4.50;94.67;99143.32;2191264;80;20944;-85
2022/11/08 07:10:09;;;;;;;40.83;17.67;;;;;;;4.62;94.11;99139.52;2221132;80;21671;-84
2022/11/08 07:13:10;;;;;;;42.17;17.87;;;;;;;4.71;93.89;99142.47;2221693;80;21003;-82
2022/11/08 07:16:10;;;;;;;31.50;17.87;;;;;;;4.86;93.89;99142.19;2222098;80;20995;-83
2022/11/08 07:19:10;;;;;;;26.53;16.50;;;;;;;4.99;93.73;99141.84;2221515;80;21046;-85
2022/11/08 07:22:11;;;;;;;88.50;18.53;;;;;;;5.11;93.80;99143.60;2221229;80;21039;-83
2022/11/08 07:25:11;;;;;;;357.53;33.87;;;;;;;5.25;93.62;99139.39;2220864;80;21266;-83
2022/11/08 07:28:12;;;;;;;23.47;15.80;;;;;;;5.37;93.56;99141.14;2221031;80;21086;-84
2022/11/08 07:31:12;;;;;;;54.37;19.00;;;;;;;5.50;93.67;99134.29;2221231;80;20994;-85
2022/11/08 07:34:12;;;;;;;40.77;16.27;;;;;;;5.69;93.83;99136.71;2220516;80;21149;-86
2022/11/08 07:37:13;;;;;;;24.63;15.33;;;;;;;5.88;93.79;99136.06;2222365;80;22020;-85
2022/11/08 07:40:13;;;;;;;27.10;16.70;;;;;;;6.12;94.04;99129.61;2222834;80;21011;-85
2022/11/08 07:43:14;;;;;;;161.50;25.20;;;;;;;6.31;94.28;99127.68;2222911;80;20960;-85
2022/11/08 07:46:14;;;;;;;44.00;18.23;;;;;;;6.57;94.75;99130.24;2222272;80;21013;-85
2022/11/08 07:49:14;;;;;;;70.97;18.83;;;;;;;6.85;95.20;99126.38;2222497;80;21015;-84
2022/11/08 07:52:15;;;;;;;23.70;16.87;;;;;;;7.20;95.60;99131.38;2222978;80;20964;-85
2022/11/08 07:55:15;;;;;;;28.37;18.27;;;;;;;7.54;95.53;99121.95;2223559;80;20999;-82
2022/11/08 07:58:16;;;;;;;37.07;20.10;;;;;;;7.79;95.17;99124.81;2216167;80;21423;-82
2022/11/08 08:01:16;;;;;;;36.27;19.73;;;;;;;8.02;95.17;99119.84;2208532;81;21987;-80
2022/11/08 08:04:16;;;;;;;29.57;18.67;;;;;;;8.29;94.90;99114.47;2208812;81;21019;-83
2022/11/08 08:07:17;;;;;;;29.67;18.77;;;;;;;8.57;94.53;99118.66;2209583;81;21011;-85
2022/11/08 08:10:17;;;;;;;30.10;19.83;;;;;;;8.83;94.07;99118.00;2209241;81;21315;-84
2022/11/08 08:13:18;;;;;;;42.33;19.73;;;;;;;9.06;93.50;99114.61;2209733;80;21450;-86
2022/11/08 08:16:19;;;;;;;37.50;21.17;;;;;;;9.31;92.96;99118.63;2209437;81;21094;-85
2022/11/08 08:19:20;;;;;;;42.50;22.17;;;;;;;9.54;92.59;99120.01;2208951;81;21018;-85
2022/11/08 08:22:20;;;;;;;42.67;20.80;;;;;;;9.76;92.35;99111.77;2209344;81;20972;-84
2022/11/08 08:25:20;;;;;;;59.07;19.30;;;;;;;9.97;91.45;99107.38;2209465;81;20933;-86
2022/11/08 08:28:21;;;;;;;76.23;21.97;;;;;;;10.17;91.08;99103.81;2209730;81;21432;-84
2022/11/08 08:31:21;;;;;;;38.23;20.90;;;;;;;10.27;90.00;99103.58;2208955;81;20988;-85
2022/11/08 08:34:22;;;;;;;38.30;18.40;;;;;;;10.43;89.77;99101.72;2208267;81;21027;-87
2022/11/08 08:37:25;;;;;;;33.67;17.73;;;;;;;10.58;89.40;99098.05;2208306;81;20980;-87
2022/11/08 08:40:25;;;;;;;57.15;18.80;;;;;;;10.60;88.62;99093.73;2208494;81;20999;-86
2022/11/08 08:43:29;;;;;;;37.78;19.10;;;;;;;10.68;88.48;99095.15;2208252;81;21362;-83
2022/11/08 08:46:29;;;;;;;32.55;19.20;;;;;;;10.82;87.65;99095.81;2209509;81;20959;-86
2022/11/08 08:49:29;;;;;;;32.42;19.45;;;;;;;10.95;86.94;99098.59;2209743;81;21031;-82
2022/11/08 08:52:30;;;;;;;31.45;21.37;;;;;;;11.07;86.31;99097.46;2210775;81;21046;-82
2022/11/08 08:55:30;;;;;;;33.00;20.70;;;;;;;11.14;86.35;99097.56;2209091;80;21043;-81
2022/11/08 08:58:30;;;;;;;34.38;19.00;;;;;;;11.27;85.54;99097.33;2208282;80;21094;-82
2022/11/08 09:01:31;;;;;;;33.33;20.85;;;;;;;11.41;86.01;99097.08;2208546;81;21650;-83
2022/11/08 09:04:31;;;;;;;35.43;18.57;;;;;;;11.57;85.35;99098.14;2208316;81;21406;-83
2022/11/08 09:07:32;;;;;;;45.90;17.35;;;;;;;11.73;85.40;99097.88;2208814;81;20944;-84
2022/11/08 09:10:32;;;;;;;19.75;14.00;;;;;;;11.87;85.25;99098.95;2209012;81;20960;-84
2022/11/08 09:13:33;;;;;;;19.10;12.68;;;;;;;12.08;85.26;99102.22;2208391;81;21023;-85
2022/11/08 09:16:33;;;;;;;17.77;12.53;;;;;;;12.25;84.33;99091.94;2208582;81;21027;-84
2022/11/08 09:19:33;;;;;;;20.05;11.57;;;;;;;12.41;84.06;99096.01;2208492;81;21412;-83
2022/11/08 09:22:34;;;;;;;16.20;10.23;;;;;;;12.53;82.84;99091.30;2207906;81;20968;-81
2022/11/08 09:25:34;;;;;;;55.33;11.45;;;;;;;12.64;82.96;99094.87;2208128;81;21016;-83
2022/11/08 09:28:37;;;;;;;18.20;7.75;;;;;;;12.75;82.65;99095.84;2207888;81;21494;-85
2022/11/08 09:31:38;;;;;;;11.40;8.00;;;;;;;12.83;81.73;99085.84;2209315;81;21003;-83
2022/11/08 09:34:38;;;;;;;13.58;7.33;;;;;;;12.89;80.50;99093.74;2208380;81;21003;-83
2022/11/08 09:37:38;;;;;;;15.43;7.50;;;;;;;12.94;81.22;99103.39;2210278;81;20968;-83
2022/11/08 09:40:39;;;;;;;13.45;6.97;;;;;;;13.03;79.43;99101.29;2210686;81;21908;-84
2022/11/08 09:43:39;;;;;;;10.68;6.87;;;;;;;13.08;80.68;99095.64;2207672;81;21403;-82
2022/11/08 09:46:40;;;;;;;12.47;7.03;;;;;;;13.22;80.80;99098.38;2207929;81;21011;-84
2022/11/08 09:49:40;;;;;;;12.45;7.25;;;;;;;13.38;79.21;99099.77;2208025;81;21311;-85
2022/11/08 09:52:40;;;;;;;9.35;6.28;;;;;;;13.48;78.69;99095.44;2208085;81;21031;-83
2022/11/08 09:55:41;;;;;;;38.25;7.85;;;;;;;13.59;77.96;99090.23;2208641;81;20972;-84
2022/11/08 09:58:42;;;;;;;12.80;6.03;;;;;;;13.69;76.62;99092.89;2213299;80;21070;-84
2022/11/08 10:01:42;;;;;;;23.25;6.25;;;;;;;13.79;77.01;99087.67;2219283;80;20991;-82
2022/11/08 10:04:42;;;;;;;10.55;6.12;;;;;;;13.93;77.18;99090.80;2219098;80;21011;-84
2022/11/08 10:07:42;;;;;;;17.77;6.62;;;;;;;14.07;77.08;99084.27;2219058;80;21019;-82
2022/11/08 10:10:44;;;;;;;12.95;6.30;;;;;;;14.20;75.60;99083.84;2219055;80;20972;-84
2022/11/08 10:13:44;;;;;;;13.68;5.85;;;;;;;14.25;74.47;99087.35;2220147;80;20972;-84
2022/11/08 10:16:45;;;;;;;17.42;5.55;;;;;;;14.31;73.98;99075.55;2219553;80;21024;-84
2022/11/08 10:19:45;;;;;;;13.45;5.85;;;;;;;14.33;73.77;99078.61;2219280;80;21390;-84
2022/11/08 10:22:45;;;;;;;7.45;5.08;;;;;;;14.34;71.72;99072.48;2219266;80;20959;-83
2022/11/08 10:25:46;;;;;;;9.48;5.20;;;;;;;14.38;73.13;99064.16;2219714;80;20984;-85
2022/11/08 10:28:49;;;;;;;11.87;5.73;;;;;;;14.41;72.83;99062.85;2220219;80;20995;-84
2022/11/08 10:31:47;;;;;;;13.20;5.42;;;;;;;14.51;72.29;99059.81;2220707;80;21207;-84
2022/11/08 10:34:47;;;;;;;13.20;5.17;;;;;;;14.56;72.19;99059.38;2220107;80;20964;-85
2022/11/08 10:37:48;;;;;;;7.45;4.72;;;;;;;14.60;70.99;99060.69;2220211;80;21363;-83
2022/11/08 10:40:48;;;;;;;7.22;4.35;;;;;;;14.63;71.96;99057.18;2219922;80;21034;-85
2022/11/08 10:43:49;;;;;;;8.95;5.53;;;;;;;14.64;70.96;99056.30;2218762;80;20972;-78
2022/11/08 10:46:49;;;;;;;12.07;5.25;;;;;;;14.67;69.94;99051.05;2217413;80;20963;-83
2022/11/08 10:49:51;;;;;;;10.75;5.20;;;;;;;14.68;70.32;99061.12;2219509;80;21040;-83
2022/11/08 10:52:50;;;;;;;11.35;5.55;;;;;;;14.72;70.37;99053.66;2219306;80;21019;-80
2022/11/08 10:55:51;;;;;;;11.57;4.53;;;;;;;14.83;69.84;99048.86;2218557;80;21909;-84
2022/11/08 10:58:51;;;;;;;6.58;4.00;;;;;;;14.90;69.94;99053.23;2219022;80;21106;-83
2022/11/08 11:01:52;;;;;;;9.68;4.00;;;;;;;14.93;69.42;99051.03;2218526;80;21012;-83
2022/11/08 11:04:52;;;;;;;5.28;4.08;;;;;;;14.97;69.68;99043.13;2219208;80;20984;-84
2022/11/08 11:07:55;;;;;;;8.80;4.85;;;;;;;14.98;69.63;99040.94;2219181;80;20952;-84
2022/11/08 11:10:56;;;;;;;19.98;5.37;;;;;;;15.03;68.77;99040.05;2218580;80;20967;-83
2022/11/08 11:13:56;;;;;;;7.55;4.47;;;;;;;15.05;69.17;99036.54;2217825;80;21455;-82
2022/11/08 11:16:57;;;;;;;5.62;4.25;;;;;;;15.15;68.70;99038.26;2217891;80;20940;-82
2022/11/08 11:19:57;;;;;;;10.35;5.10;;;;;;;15.22;68.31;99032.53;2217987;80;20952;-82
2022/11/08 11:22:57;;;;;;;6.42;3.65;;;;;;;15.26;67.90;99033.83;2218353;80;21423;-82
2022/11/08 11:25:58;;;;;;;6.40;3.77;;;;;;;15.30;66.24;99037.33;2218873;80;21921;-83
2022/11/08 11:28:58;;;;;;;8.63;4.70;;;;;;;15.26;67.75;99033.83;2218886;80;21094;-82
2022/11/08 11:31:59;;;;;;;10.30;4.95;;;;;;;15.27;67.88;99029.01;2218788;80;21007;-81
2022/11/08 11:35:02;;;;;;;11.90;5.07;;;;;;;15.28;67.39;99033.39;2218926;80;20987;-84
2022/11/08 11:38:03;;;;;;;9.28;4.40;;;;;;;15.22;66.66;99034.73;2219403;80;21157;-85
2022/11/08 11:41:03;;;;;;;15.28;5.58;;;;;;;15.13;67.31;99029.94;2218891;80;20999;-84
2022/11/08 11:44:03;;;;;;;8.48;4.87;;;;;;;15.06;67.21;99030.41;2219122;80;20978;-84
2022/11/08 11:47:04;;;;;;;10.53;5.25;;;;;;;15.04;67.29;99027.34;2218735;80;21383;-83
2022/11/08 11:50:04;;;;;;;17.07;5.50;;;;;;;15.03;67.37;99026.47;2218151;80;20959;-84
2022/11/08 11:53:05;;;;;;;11.25;5.37;;;;;;;15.01;68.25;99023.41;2218712;80;20980;-84
2022/11/08 11:56:05;;;;;;;11.35;5.45;;;;;;;15.03;67.90;99017.27;2219822;80;20979;-83
2022/11/08 11:59:05;;;;;;;18.85;6.50;;;;;;;15.06;67.85;99019.02;2219431;80;21015;-83
2022/11/08 12:02:06;;;;;;;11.78;5.47;;;;;;;15.09;67.94;99014.62;2219982;80;20999;-83
2022/11/08 12:05:06;;;;;;;11.85;5.55;;;;;;;15.09;66.96;99011.98;2219385;80;20983;-84
2022/11/08 12:08:07;;;;;;;8.60;4.95;;;;;;;15.06;66.84;99015.94;2219584;80;20932;-83
2022/11/08 12:11:07;;;;;;;7.37;5.15;;;;;;;15.02;65.00;99019.91;2221462;80;21236;-83
2022/11/08 12:14:07;;;;;;;10.88;4.90;;;;;;;14.97;66.69;99012.03;2222010;80;20967;-83
2022/11/08 12:17:08;;;;;;;8.50;4.83;;;;;;;14.93;66.44;99010.29;2222032;80;21409;-83
2022/11/08 12:20:08;;;;;;;22.05;6.35;;;;;;;14.91;66.19;99010.30;2222803;80;20928;-80
2022/11/08 12:23:09;;;;;;;8.13;4.97;;;;;;;14.89;67.16;99012.49;2221330;80;21002;-81
2022/11/08 12:26:09;;;;;;;20.68;5.80;;;;;;;14.89;66.81;99013.81;2219115;80;21019;-83
2022/11/08 12:29:10;;;;;;;10.85;5.22;;;;;;;14.87;67.12;99011.63;2220976;80;21501;-84
2022/11/08 12:32:10;;;;;;;11.40;4.67;;;;;;;14.90;66.92;99008.98;2220753;80;20960;-85
2022/11/08 12:35:10;;;;;;;7.00;4.83;;;;;;;14.87;66.64;99008.55;2220076;80;21018;-83
2022/11/08 12:38:11;;;;;;;9.05;4.83;;;;;;;14.81;66.75;99007.26;2219969;80;21337;-84
2022/11/08 12:41:11;;;;;;;9.98;4.55;;;;;;;14.72;66.20;99007.25;2220897;80;21378;-83
2022/11/08 12:44:12;;;;;;;65.85;8.03;;;;;;;14.64;66.99;99004.64;2220136;80;21011;-84
2022/11/08 12:47:12;;;;;;;12.82;5.72;;;;;;;14.62;66.78;99006.39;2220361;80;20940;-85
2022/11/08 12:50:12;;;;;;;12.75;5.22;;;;;;;14.54;66.59;99000.27;2220693;80;20971;-85
2022/11/08 12:53:13;;;;;;;23.25;6.53;;;;;;;14.47;67.32;99005.10;2220625;80;20966;-84
2022/11/08 12:56:13;;;;;;;17.00;5.47;;;;;;;14.47;66.91;98998.97;2220562;80;20959;-83
2022/11/08 12:59:14;;;;;;;17.25;5.17;;;;;;;14.41;67.33;98994.57;2216659;80;21110;-84
2022/11/08 13:02:14;;;;;;;10.58;4.58;;;;;;;14.32;67.95;98990.64;2210019;81;21004;-83
2022/11/08 13:05:14;;;;;;;18.40;5.85;;;;;;;14.31;68.01;98992.83;2210374;81;21000;-85
2022/11/08 13:08:15;;;;;;;15.85;5.53;;;;;;;14.33;68.21;98987.14;2210449;81;20972;-85
2022/11/08 13:11:15;;;;;;;25.88;5.05;;;;;;;14.36;67.82;98983.20;2209264;81;21072;-85
2022/11/08 13:14:16;;;;;;;16.02;4.85;;;;;;;14.37;68.00;98981.45;2209281;81;20985;-83
2022/11/08 13:17:16;;;;;;;11.48;4.83;;;;;;;14.36;67.82;98980.57;2209159;81;20975;-84
2022/11/08 13:20:16;;;;;;;17.87;5.30;;;;;;;14.29;68.01;98980.14;2208676;81;21670;-84
2022/11/08 13:23:17;;;;;;;13.72;6.55;;;;;;;14.24;67.95;98971.39;2208947;81;20980;-83
2022/11/08 13:26:17;;;;;;;14.90;6.05;;;;;;;14.24;68.45;98972.70;2208692;81;20936;-84
2022/11/08 13:29:18;;;;;;;73.80;10.05;;;;;;;14.24;68.70;98976.20;2207550;81;21816;-82
2022/11/08 13:32:18;;;;;;;41.88;6.65;;;;;;;14.25;69.01;98975.77;2207159;81;20956;-84
2022/11/08 13:35:18;;;;;;;21.35;5.30;;;;;;;14.28;68.80;98971.83;2208310;81;21011;-83
2022/11/08 13:38:19;;;;;;;12.63;4.67;;;;;;;14.24;68.84;98973.58;2208502;81;21027;-83
2022/11/08 13:41:19;;;;;;;22.13;5.37;;;;;;;14.19;68.77;98970.09;2209616;81;21089;-87
2022/11/08 13:44:20;;;;;;;34.43;6.30;;;;;;;14.16;69.14;98976.65;2208470;81;21061;-84
2022/11/08 13:47:20;;;;;;;23.87;6.20;;;;;;;14.14;69.09;98977.09;2210036;81;20940;-84
2022/11/08 13:50:21;;;;;;;20.82;6.15;;;;;;;14.13;69.39;98977.97;2208805;81;20987;-83
2022/11/08 13:53:21;;;;;;;15.03;5.45;;;;;;;14.10;69.44;98977.97;2209345;81;21070;-81
2022/11/08 13:56:22;;;;;;;54.67;7.70;;;;;;;14.01;69.28;98980.16;2209586;81;21833;-82
2022/11/08 13:59:22;;;;;;;13.70;4.42;;;;;;;13.95;69.51;98988.02;2210542;80;21043;-82
2022/11/08 14:02:22;;;;;;;217.72;15.43;;;;;;;13.86;69.51;98985.36;2209696;81;20944;-81
2022/11/08 14:05:23;;;;;;;23.98;6.28;;;;;;;13.79;69.88;98977.48;2209714;81;20964;-82
2022/11/08 14:08:23;;;;;;;21.27;5.67;;;;;;;13.69;69.95;98967.41;2210827;81;20972;-82
2022/11/08 14:11:23;;;;;;;167.70;14.43;;;;;;;13.60;70.12;98973.95;2209895;81;20948;-83
2022/11/08 14:14:24;;;;;;;142.77;14.13;;;;;;;13.52;70.58;98973.06;2209187;81;21027;-81
2022/11/08 14:17:24;;;;;;;71.47;10.30;;;;;;;13.42;71.30;98970.86;2209721;81;20964;-83